Oskaloosa, Kansas
Current Conditions -  °F | °C
As of 8:52 PM on Wednesday 22 Oct 2014 (Local Time) from KLWC Reporting Station
Clear Clear  
Wind Chill: 63°   Ceiling: Unl
Heat Index: 63°   Visibility: 8mi
Dew Point: 55°   Wind: 8mph
Humidity: 75%   Direction: 150°SSE
Pressure: 30.09"   Gusts: NA
Location:  39.22°N, 95.31°W
Report Text: KLWC 230152Z AUTO 15007KT 8SM CLR 17/13 A3009 RMK AO2 SLP188 T01720128
Loading
Personal Weather Stations






























Interactive Weather Map
Tropical Storm Tracking
New forecast layout! Learn more

10-Day Weather Forecast

Advertisements
Track Severe Weather on mobile